Genegantslet, New York
Current Conditions -  °F | °C
As of 9:36 AM on Thursday 27 Nov 2014 (Local Time) from KBGM Reporting Station
Light Snow Light Snow  
Wind Chill:   Ceiling: 400
Heat Index:   Visibility: 2mi
Dew Point: -4°   Wind: 7mph
Humidity: 59%   Direction: 290°WNW
Pressure: 29.96"   Gusts: NA
Location:  42.3542°N, 75.7469°W
Report Text: KBGM 271436Z 29006KT 2SM -SN OVC004 03/M04 A2996 RMK AO2 P0001 T00281044 $
Loading
Personal Weather Stations






























Interactive Weather Map New forecast layout! Learn more

10-Day Weather Forecast

Advertisements
Track Severe Weather on mobile